Terminal Aerodrome Forecast
Issued by NWS Binghamton, NY

Home | Current Version | Previous Version | Text Only | Print | Product List | Glossary On
Versions: 1 2 3 4 5 6 7 8 9 10 11 12 13 14 15 16 17 18 19
700
FTUS41 KBGM 251129
TAFBGM
TAF
KBGM 251129Z 2512/2612 17010G17KT P6SM BKN025
     FM251500 18015G28KT P6SM OVC035
     FM251700 18014G27KT P6SM -SHRA OVC025
      TEMPO 2518/2521 2SM +TSRA BR OVC015CB
     FM252200 28013G26KT 3SM -SHRA OVC020
     FM260100 29011G20KT P6SM -RASN BKN040
     FM260700 28015G30KT P6SM BKN025 OVC050=

USA.gov is the U.S. government's official web portal to all federal, state and local government web resources and services.